Time;durP1;ratioP1;P1;durP2;ratioP2;P2;SDS_P1;SDS_P2;PMS_P1;PMS_P2;Temp;Humidity;BMP_temperature;BMP_pressure;BME280_temperature;BME280_humidity;BME280_pressure;Samples;Min_cycle;Max_cycle;Signal;HPM_P1;HPM_P2
2022/10/20 00:01:32;;;;;;;26.80;13.52;;;;;;;10.73;100.00;101564.97;5224701;28;20036;-74
2022/10/20 00:04:03;;;;;;;31.20;14.43;;;;;;;10.72;100.00;101557.91;5224843;28;20099;-75
2022/10/20 00:06:33;;;;;;;29.70;13.65;;;;;;;10.70;100.00;101543.81;5224267;28;20025;-74
2022/10/20 00:09:05;;;;;;;29.88;13.98;;;;;;;10.67;100.00;101530.69;5223859;28;20028;-77
2022/10/20 00:11:35;;;;;;;30.48;15.00;;;;;;;10.67;100.00;101541.41;5224732;28;20035;-74
2022/10/20 00:14:05;;;;;;;43.55;14.20;;;;;;;10.67;100.00;101536.06;5224722;28;20482;-74
2022/10/20 00:16:38;;;;;;;27.27;13.75;;;;;;;10.65;100.00;101538.06;5224527;28;20471;-77
2022/10/20 00:19:08;;;;;;;28.95;14.95;;;;;;;10.63;100.00;101541.72;5223638;28;20024;-75
2022/10/20 00:21:39;;;;;;;33.42;14.30;;;;;;;10.61;100.00;101538.34;5224311;28;20025;-75
2022/10/20 00:24:09;;;;;;;29.25;13.30;;;;;;;10.61;100.00;101540.19;5224423;28;20071;-74
2022/10/20 00:26:39;;;;;;;29.42;15.13;;;;;;;10.59;100.00;101518.88;5224532;28;20045;-74
2022/10/20 00:29:10;;;;;;;30.58;15.30;;;;;;;10.57;100.00;101518.16;5223890;28;20112;-75
2022/10/20 00:31:41;;;;;;;32.88;14.73;;;;;;;10.53;100.00;101508.72;5223865;28;20023;-77
2022/10/20 00:34:12;;;;;;;28.63;14.60;;;;;;;10.51;100.00;101494.63;5223608;28;20064;-75
2022/10/20 00:36:42;;;;;;;34.15;14.95;;;;;;;10.49;100.00;101488.59;5224290;28;20452;-75
2022/10/20 00:39:12;;;;;;;34.97;14.90;;;;;;;10.47;100.00;101487.88;5223593;28;20025;-76
2022/10/20 00:41:43;;;;;;;32.92;14.90;;;;;;;10.47;100.00;101485.19;5224299;28;20049;-73
2022/10/20 00:44:52;;;;;;;37.17;16.13;;;;;;;10.44;100.00;101485.50;5223054;28;20108;-76
2022/10/20 00:47:34;;;;;;;34.00;15.35;;;;;;;10.45;100.00;101486.34;5223190;28;20032;-76
2022/10/20 00:50:08;;;;;;;34.97;16.67;;;;;;;10.42;100.00;101482.09;5223687;28;20542;-77
2022/10/20 00:52:40;;;;;;;31.75;14.70;;;;;;;10.44;100.00;101490.88;5222278;28;20025;-75
2022/10/20 00:55:16;;;;;;;31.88;15.88;;;;;;;10.44;100.00;101484.63;5223545;28;20606;-77
2022/10/20 00:57:48;;;;;;;;;;;;;;;10.43;100.00;101489.16;5223503;28;20111;-75
2022/10/20 01:00:19;;;;;;;32.03;15.25;;;;;;;10.43;100.00;101482.94;5223691;28;19948;-75
2022/10/20 01:02:53;;;;;;;34.25;16.52;;;;;;;10.39;100.00;101477.03;5224451;28;20072;-75
2022/10/20 01:05:24;;;;;;;32.85;15.48;;;;;;;10.37;100.00;101479.03;5223716;28;20505;-75
2022/10/20 01:07:55;;;;;;;37.63;16.15;;;;;;;10.33;100.00;101475.78;5223215;28;20112;-75
2022/10/20 01:10:32;;;;;;;36.95;16.15;;;;;;;10.29;100.00;101474.44;5223856;28;20059;-77
2022/10/20 01:13:33;;;;;;;32.42;16.15;;;;;;;10.29;100.00;101468.19;5223663;28;20032;-76
2022/10/20 01:16:12;;;;;;;35.25;15.63;;;;;;;10.28;100.00;101463.81;5222928;28;20056;-75
2022/10/20 01:19:08;;;;;;;43.08;17.67;;;;;;;10.28;100.00;101459.31;5222805;28;20037;-75
2022/10/20 01:22:06;;;;;;;38.22;15.88;;;;;;;10.28;100.00;101461.16;5223756;28;20021;-75
2022/10/20 01:25:00;;;;;;;38.95;16.73;;;;;;;10.27;100.00;101451.41;5223247;28;20361;-74
2022/10/20 01:27:41;;;;;;;45.47;18.63;;;;;;;10.26;100.00;101439.84;5222520;28;20021;-74
2022/10/20 01:30:22;;;;;;;33.08;15.70;;;;;;;10.25;100.00;101429.28;5222827;28;20029;-76
2022/10/20 01:33:16;;;;;;;37.65;16.35;;;;;;;10.25;100.00;101423.94;5220773;28;20029;-75
2022/10/20 01:35:59;;;;;;;40.17;17.23;;;;;;;10.22;100.00;101429.53;5223198;28;20037;-75
2022/10/20 01:38:52;;;;;;;37.45;17.50;;;;;;;10.20;100.00;101427.03;5222202;28;20028;-75
2022/10/20 01:41:48;;;;;;;43.47;18.40;;;;;;;10.20;100.00;101412.78;5223242;28;20037;-76
2022/10/20 01:44:23;;;;;;;42.30;18.73;;;;;;;10.22;100.00;101411.63;5223396;28;20017;-75
2022/10/20 01:46:55;;;;;;;39.42;19.05;;;;;;;10.23;100.00;101415.13;5222426;28;20028;-76
2022/10/20 01:49:26;;;;;;;48.08;19.85;;;;;;;10.25;100.00;101413.19;5223384;28;20028;-75
2022/10/20 01:51:57;;;;;;;45.20;19.50;;;;;;;10.26;100.00;101406.84;5223289;28;20029;-76
2022/10/20 01:54:29;;;;;;;43.67;20.70;;;;;;;10.27;100.00;101395.09;5222950;28;20029;-73
2022/10/20 01:57:09;;;;;;;55.47;20.80;;;;;;;10.29;100.00;101393.09;5213361;28;20025;-78
2022/10/20 02:00:11;;;;;;;45.38;19.95;;;;;;;10.28;100.00;101400.31;5226859;28;20044;-76
2022/10/20 02:03:20;;;;;;;41.60;18.95;;;;;;;10.29;100.00;101379.69;5221202;28;20483;-73
2022/10/20 02:06:08;;;;;;;46.67;20.25;;;;;;;10.31;100.00;101380.41;5226921;28;20375;-75
2022/10/20 02:08:48;;;;;;;42.85;19.67;;;;;;;10.29;100.00;101377.00;5226705;28;20076;-74
2022/10/20 02:11:45;;;;;;;45.42;19.38;;;;;;;10.30;100.00;101363.47;5223699;28;20506;-75
2022/10/20 02:14:19;;;;;;;48.35;19.50;;;;;;;10.31;100.00;101362.47;5220420;28;20060;-73
2022/10/20 02:16:58;;;;;;;52.42;21.00;;;;;;;10.35;100.00;101363.03;5226693;28;20040;-73
2022/10/20 02:19:34;;;;;;;46.88;21.17;;;;;;;10.35;100.00;101354.97;5226632;28;20483;-73
2022/10/20 02:22:06;;;;;;;46.80;19.98;;;;;;;10.35;100.00;101345.09;5226801;28;20033;-74
2022/10/20 02:24:39;;;;;;;43.88;20.27;;;;;;;10.38;100.00;101335.88;5226363;28;20025;-75
2022/10/20 02:27:24;;;;;;;43.58;19.13;;;;;;;10.36;100.00;101329.84;5226128;28;20103;-73
2022/10/20 02:30:10;;;;;;;54.77;21.20;;;;;;;10.38;100.00;101335.88;5226669;28;20052;-73
2022/10/20 02:32:43;;;;;;;51.17;20.50;;;;;;;10.36;100.00;101327.16;5225646;28;20029;-73
2022/10/20 02:35:19;;;;;;;52.08;20.77;;;;;;;10.38;100.00;101333.19;5226265;28;20360;-73
2022/10/20 02:37:49;;;;;;;45.53;19.85;;;;;;;10.38;100.00;101323.31;5225943;28;20028;-74
2022/10/20 02:40:21;;;;;;;40.67;19.30;;;;;;;10.41;100.00;101324.84;5226428;28;20049;-74
2022/10/20 02:42:51;;;;;;;45.65;20.17;;;;;;;10.42;100.00;101312.28;5226826;28;20732;-74
2022/10/20 02:45:22;;;;;;;44.55;20.00;;;;;;;10.43;100.00;101314.81;5226076;28;20029;-73
2022/10/20 02:47:52;;;;;;;41.10;19.52;;;;;;;10.44;100.00;101319.19;5225839;28;20025;-74
2022/10/20 02:50:23;;;;;;;37.33;17.85;;;;;;;10.46;100.00;101325.25;5226349;28;20029;-73
2022/10/20 02:52:53;;;;;;;42.80;17.42;;;;;;;10.47;100.00;101329.59;5226230;28;20104;-73
2022/10/20 02:55:24;;;;;;;43.80;18.42;;;;;;;10.46;100.00;101305.63;5226312;28;20025;-75
2022/10/20 02:57:54;;;;;;;42.65;18.55;;;;;;;10.48;100.00;101307.13;5225131;28;20391;-74
2022/10/20 03:00:28;;;;;;;45.83;18.05;;;;;;;10.48;100.00;101296.41;5226265;28;20131;-72
2022/10/20 03:02:58;;;;;;;38.22;18.40;;;;;;;10.49;100.00;101295.44;5226245;28;20505;-73
2022/10/20 03:05:29;;;;;;;29.45;15.23;;;;;;;10.49;100.00;101287.38;5226158;28;20033;-73
2022/10/20 03:07:59;;;;;;;34.40;15.95;;;;;;;10.47;100.00;101284.00;5224308;28;20021;-72
2022/10/20 03:10:30;;;;;;;32.65;16.42;;;;;;;10.47;100.00;101273.25;5225824;28;20025;-73
2022/10/20 03:13:00;;;;;;;33.60;15.85;;;;;;;10.44;100.00;101272.72;5225921;28;20025;-75
2022/10/20 03:15:31;;;;;;;35.03;16.38;;;;;;;10.42;100.00;101275.56;5225818;28;20024;-73
2022/10/20 03:18:02;;;;;;;39.10;17.75;;;;;;;10.41;100.00;101278.41;5225202;28;20078;-73
2022/10/20 03:20:33;;;;;;;39.53;15.27;;;;;;;10.38;100.00;101277.72;5225508;28;20025;-73
2022/10/20 03:23:03;;;;;;;37.53;16.17;;;;;;;10.37;100.00;101267.97;5225846;28;20031;-73
2022/10/20 03:25:34;;;;;;;35.38;15.73;;;;;;;10.36;100.00;101274.34;5225566;28;20090;-73
2022/10/20 03:28:04;;;;;;;33.25;15.57;;;;;;;10.36;100.00;101265.47;5225252;28;20086;-73
2022/10/20 03:30:35;;;;;;;36.13;16.13;;;;;;;10.37;100.00;101267.16;5225112;28;20116;-75
2022/10/20 03:33:05;;;;;;;31.13;15.27;;;;;;;10.38;100.00;101266.16;5225022;28;20151;-73
2022/10/20 03:35:36;;;;;;;40.30;16.58;;;;;;;10.40;100.00;101263.31;5225213;28;20107;-72
2022/10/20 03:38:06;;;;;;;34.95;16.58;;;;;;;10.42;100.00;101253.28;5224927;28;20021;-73
2022/10/20 03:40:37;;;;;;;38.35;16.23;;;;;;;10.46;100.00;101246.59;5225139;28;20487;-75
2022/10/20 03:43:07;;;;;;;31.65;15.70;;;;;;;10.49;100.00;101236.41;5225519;28;20017;-75
2022/10/20 03:45:38;;;;;;;34.63;15.38;;;;;;;10.50;100.00;101237.25;5223524;28;20032;-73
2022/10/20 03:48:09;;;;;;;38.38;17.10;;;;;;;10.51;100.00;101223.69;5224680;28;20036;-73
2022/10/20 03:50:41;;;;;;;36.75;16.15;;;;;;;10.51;100.00;101239.78;5224985;28;20056;-72
2022/10/20 03:53:13;;;;;;;35.55;16.23;;;;;;;10.52;100.00;101237.94;5225170;28;20029;-73
2022/10/20 03:55:43;;;;;;;32.20;16.00;;;;;;;10.53;100.00;101251.19;5225120;28;20159;-74
2022/10/20 03:58:13;;;;;;;33.63;16.42;;;;;;;10.53;100.00;101263.75;5224016;28;20537;-73
2022/10/20 04:00:45;;;;;;;33.13;16.58;;;;;;;10.51;100.00;101289.91;5225131;28;20088;-75
2022/10/20 04:03:15;;;;;;;34.53;16.17;;;;;;;10.50;100.00;101293.59;5224958;28;20025;-75
2022/10/20 04:05:46;;;;;;;42.42;17.23;;;;;;;10.50;100.00;101281.00;5224728;28;20036;-76
2022/10/20 04:08:16;;;;;;;35.15;15.57;;;;;;;10.49;100.00;101276.66;5224007;28;20032;-75
2022/10/20 04:10:47;;;;;;;36.47;15.63;;;;;;;10.44;100.00;101281.66;5224409;28;20037;-73
2022/10/20 04:13:17;;;;;;;35.90;16.27;;;;;;;10.40;100.00;101288.31;5224569;28;20029;-73
2022/10/20 04:15:48;;;;;;;34.78;16.08;;;;;;;10.36;100.00;101266.31;5224720;28;20549;-75
2022/10/20 04:18:18;;;;;;;34.63;16.00;;;;;;;10.32;100.00;101274.81;5223237;28;20426;-73
2022/10/20 04:20:49;;;;;;;32.55;15.55;;;;;;;10.29;100.00;101262.56;5223698;28;20074;-73
2022/10/20 04:23:19;;;;;;;35.85;16.50;;;;;;;10.25;100.00;101255.81;5224273;28;20025;-74
2022/10/20 04:25:50;;;;;;;34.47;17.02;;;;;;;10.17;100.00;101247.66;5224234;28;20024;-74
2022/10/20 04:28:20;;;;;;;39.55;17.92;;;;;;;10.15;100.00;101244.31;5224192;28;20100;-74
2022/10/20 04:30:51;;;;;;;38.30;18.00;;;;;;;10.14;100.00;101239.94;5224233;28;20045;-74
2022/10/20 04:33:21;;;;;;;39.20;18.58;;;;;;;10.11;100.00;101230.34;5224412;28;20158;-74
2022/10/20 04:36:04;;;;;;;37.25;17.30;;;;;;;10.06;100.00;101237.19;5223950;28;20036;-74
2022/10/20 04:38:35;;;;;;;38.83;18.15;;;;;;;10.03;100.00;101229.44;5223637;28;20059;-74
2022/10/20 04:41:05;;;;;;;40.65;18.40;;;;;;;10.01;100.00;101218.88;5224474;28;20045;-74
2022/10/20 04:43:36;;;;;;;36.97;17.55;;;;;;;9.99;100.00;101220.88;5224421;28;20371;-74
2022/10/20 04:46:06;;;;;;;40.47;18.67;;;;;;;9.93;100.00;101213.44;5223498;28;20477;-76
2022/10/20 04:48:42;;;;;;;44.38;19.58;;;;;;;9.93;100.00;101215.28;5223634;28;20112;-75
2022/10/20 04:51:14;;;;;;;47.55;19.73;;;;;;;9.92;100.00;101214.44;5224166;28;20490;-76
2022/10/20 04:53:45;;;;;;;47.15;20.63;;;;;;;9.93;100.00;101191.16;5223746;28;20029;-74
2022/10/20 04:56:19;;;;;;;41.95;19.48;;;;;;;9.95;100.00;101200.72;5223503;28;20021;-74
2022/10/20 04:58:51;;;;;;;42.17;19.70;;;;;;;9.93;100.00;101215.28;5223198;28;20035;-74
2022/10/20 05:01:24;;;;;;;43.08;18.05;;;;;;;9.88;100.00;101210.38;5223774;28;20435;-74
2022/10/20 05:03:55;;;;;;;44.22;20.15;;;;;;;9.89;100.00;101216.56;5255829;28;20492;-71
2022/10/20 05:06:29;;;;;;;45.05;20.02;;;;;;;9.88;100.00;101215.72;5223506;28;20074;-72
2022/10/20 05:09:01;;;;;;;42.95;18.17;;;;;;;9.82;100.00;101203.78;5222997;28;20046;-71
2022/10/20 05:11:35;;;;;;;42.85;19.75;;;;;;;9.81;100.00;101204.78;5223491;28;20487;-71
2022/10/20 05:14:06;;;;;;;41.10;18.45;;;;;;;9.80;100.00;101203.09;5223459;28;20024;-71
2022/10/20 05:16:37;;;;;;;42.47;19.38;;;;;;;9.80;100.00;101203.09;5223390;28;20021;-71
2022/10/20 05:19:08;;;;;;;44.83;20.90;;;;;;;9.81;100.00;101202.09;5222673;28;20104;-71
2022/10/20 05:21:39;;;;;;;45.85;21.58;;;;;;;9.85;100.00;101205.31;5222905;28;20463;-72
2022/10/20 05:24:15;;;;;;;50.42;22.45;;;;;;;9.85;100.00;101192.78;5223402;28;20023;-74
2022/10/20 05:26:45;;;;;;;48.78;21.13;;;;;;;9.85;100.00;101184.72;5223238;28;20121;-74
2022/10/20 05:29:15;;;;;;;43.35;19.77;;;;;;;9.88;100.00;101196.13;5222953;28;20450;-76
2022/10/20 05:31:46;;;;;;;46.55;20.83;;;;;;;9.90;100.00;101194.16;5222220;28;20021;-74
2022/10/20 05:34:16;;;;;;;50.70;20.38;;;;;;;9.94;100.00;101196.38;5223072;28;20068;-75
2022/10/20 05:36:47;;;;;;;46.78;19.92;;;;;;;9.96;100.00;101194.38;5223283;28;20039;-75
2022/10/20 05:39:17;;;;;;;51.40;21.13;;;;;;;9.97;100.00;101188.00;5223535;28;20451;-75
2022/10/20 05:41:48;;;;;;;42.08;19.33;;;;;;;9.99;100.00;101190.53;5223756;28;20029;-77
2022/10/20 05:44:18;;;;;;;50.08;21.30;;;;;;;9.99;100.00;101196.75;5255924;28;20023;-76
2022/10/20 05:46:48;;;;;;;43.05;20.58;;;;;;;9.98;100.00;101187.00;5222856;28;20104;-77
2022/10/20 05:49:19;;;;;;;50.70;20.55;;;;;;;9.99;100.00;101183.34;5223215;28;20048;-75
2022/10/20 05:51:49;;;;;;;45.15;19.38;;;;;;;10.01;100.00;101169.78;5223138;28;20147;-75
2022/10/20 05:54:20;;;;;;;42.03;19.60;;;;;;;10.05;100.00;101160.44;5223227;28;20055;-74
2022/10/20 05:56:50;;;;;;;50.13;20.63;;;;;;;10.09;100.00;101157.31;5221848;28;20029;-77
2022/10/20 05:59:21;;;;;;;39.03;18.77;;;;;;;10.12;100.00;101161.50;5223156;28;20372;-74
2022/10/20 06:01:51;;;;;;;43.17;19.70;;;;;;;10.11;100.00;101157.97;5223019;28;20033;-74
2022/10/20 06:04:23;;;;;;;43.55;20.20;;;;;;;10.15;100.00;101163.03;5223188;28;20025;-74
2022/10/20 06:06:53;;;;;;;49.47;20.83;;;;;;;10.16;100.00;101157.50;5222661;28;20889;-77
2022/10/20 06:09:24;;;;;;;50.15;20.10;;;;;;;10.18;100.00;101146.63;5222916;28;20032;-75
2022/10/20 06:11:54;;;;;;;45.03;20.92;;;;;;;10.19;100.00;101146.50;5223286;28;20033;-74
2022/10/20 06:14:25;;;;;;;42.13;18.42;;;;;;;10.23;100.00;101133.59;5223013;28;20475;-75
2022/10/20 06:16:56;;;;;;;55.00;21.95;;;;;;;10.25;100.00;101145.88;5222466;28;20505;-74
2022/10/20 06:19:26;;;;;;;50.95;22.40;;;;;;;10.30;100.00;101145.41;5222911;28;20029;-74
2022/10/20 06:21:57;;;;;;;47.22;21.38;;;;;;;10.33;100.00;101140.56;5222998;28;20032;-74
2022/10/20 06:24:27;;;;;;;41.03;19.52;;;;;;;10.39;100.00;101131.03;5223212;28;20021;-74
2022/10/20 06:26:58;;;;;;;49.47;22.27;;;;;;;10.47;100.00;101128.41;5222854;28;20067;-74
2022/10/20 06:29:28;;;;;;;46.45;20.63;;;;;;;10.54;100.00;101150.06;5223274;28;20079;-74
2022/10/20 06:31:59;;;;;;;43.55;20.38;;;;;;;10.61;100.00;101149.28;5222703;28;20021;-74
2022/10/20 06:34:29;;;;;;;44.03;21.08;;;;;;;10.68;100.00;101154.84;5223170;28;20051;-75
2022/10/20 06:36:59;;;;;;;49.05;19.75;;;;;;;10.73;100.00;101155.22;5223108;28;20028;-75
2022/10/20 06:39:30;;;;;;;47.72;21.73;;;;;;;10.79;100.00;101159.09;5223828;28;20025;-74
2022/10/20 06:42:02;;;;;;;39.33;20.65;;;;;;;10.85;100.00;101163.84;5224422;28;20028;-74
2022/10/20 06:44:32;;;;;;;40.83;20.15;;;;;;;10.91;100.00;101168.56;5226854;28;20463;-74
2022/10/20 06:47:06;;;;;;;38.83;19.50;;;;;;;10.96;100.00;101181.50;5227073;28;20048;-74
2022/10/20 06:49:36;;;;;;;40.95;19.33;;;;;;;10.99;100.00;101175.81;5228956;28;20029;-74
2022/10/20 06:52:07;;;;;;;43.85;20.38;;;;;;;11.03;100.00;101177.19;5227913;28;20017;-75
2022/10/20 06:54:37;;;;;;;39.95;19.10;;;;;;;11.05;100.00;101167.13;5227427;28;20025;-74
2022/10/20 06:57:08;;;;;;;40.03;19.50;;;;;;;11.06;100.00;101166.97;5226239;28;20150;-76
2022/10/20 06:59:38;;;;;;;34.38;18.85;;;;;;;11.08;100.00;101162.25;5226317;28;20116;-75
2022/10/20 07:02:10;;;;;;;40.95;19.25;;;;;;;11.13;100.00;101153.72;5227093;28;20035;-75
2022/10/20 07:04:41;;;;;;;37.05;17.63;;;;;;;11.19;100.00;101154.91;5225627;28;20017;-75
2022/10/20 07:07:11;;;;;;;36.72;18.38;;;;;;;11.24;100.00;101157.94;5225894;28;20119;-75
2022/10/20 07:09:42;;;;;;;39.28;18.67;;;;;;;11.32;100.00;101164.19;5226139;28;20056;-75
2022/10/20 07:12:12;;;;;;;37.08;18.42;;;;;;;11.38;100.00;101166.22;5226275;28;20131;-75
2022/10/20 07:14:42;;;;;;;38.95;18.13;;;;;;;11.45;100.00;101173.66;5226699;28;20057;-75
2022/10/20 07:17:13;;;;;;;39.50;17.45;;;;;;;11.50;100.00;101169.47;5225822;28;20031;-75
2022/10/20 07:19:43;;;;;;;34.55;16.73;;;;;;;11.54;100.00;101169.94;5226058;28;20031;-76
2022/10/20 07:22:14;;;;;;;35.75;17.98;;;;;;;11.58;100.00;101165.94;5226296;28;20021;-75
2022/10/20 07:24:44;;;;;;;33.30;16.85;;;;;;;11.61;100.00;101158.38;5226053;28;20020;-74
2022/10/20 07:27:14;;;;;;;33.03;17.17;;;;;;;11.67;100.00;101164.94;5225394;28;20021;-75
2022/10/20 07:29:45;;;;;;;31.45;16.80;;;;;;;11.72;100.00;101169.81;5226074;28;20096;-75
2022/10/20 07:32:15;;;;;;;34.58;17.30;;;;;;;11.75;100.00;101164.97;5225422;28;20433;-74
2022/10/20 07:34:46;;;;;;;30.90;16.63;;;;;;;11.80;100.00;101169.84;5225519;28;20100;-75
2022/10/20 07:37:16;;;;;;;42.92;18.00;;;;;;;11.83;100.00;101167.69;5224954;28;20406;-75
2022/10/20 07:39:47;;;;;;;36.13;17.50;;;;;;;11.88;100.00;101180.63;5225869;28;20029;-75
2022/10/20 07:42:17;;;;;;;30.83;15.57;;;;;;;11.95;100.00;101192.41;5225527;28;20104;-75
2022/10/20 07:44:47;;;;;;;34.90;17.13;;;;;;;11.98;100.00;101189.38;5225666;28;20024;-75
2022/10/20 07:47:18;;;;;;;36.63;16.63;;;;;;;12.02;100.00;101190.72;5224476;28;20024;-75
2022/10/20 07:49:48;;;;;;;29.95;15.75;;;;;;;12.07;100.00;101201.81;5225422;28;20025;-75
2022/10/20 07:52:19;;;;;;;32.80;16.10;;;;;;;12.14;100.00;101193.91;5225663;28;20040;-75
2022/10/20 07:54:49;;;;;;;34.40;17.25;;;;;;;12.24;100.00;101199.13;5225322;28;20021;-75
2022/10/20 07:57:20;;;;;;;32.25;16.73;;;;;;;12.30;100.00;101193.06;5224773;28;20031;-75
2022/10/20 07:59:50;;;;;;;31.70;15.80;;;;;;;12.36;100.00;101187.03;5224676;28;20029;-74
2022/10/20 08:02:22;;;;;;;33.33;16.55;;;;;;;12.44;100.00;101184.31;5225280;28;20120;-75
2022/10/20 08:04:52;;;;;;;29.95;16.13;;;;;;;12.51;100.00;101179.94;5225219;28;20051;-75
2022/10/20 08:07:23;;;;;;;29.77;15.55;;;;;;;12.61;100.00;101177.91;5224751;28;20057;-73
2022/10/20 08:09:53;;;;;;;33.80;14.65;;;;;;;12.69;100.00;101166.25;5225366;28;20044;-75
2022/10/20 08:12:24;;;;;;;38.22;14.65;;;;;;;12.77;100.00;101158.19;5224663;28;20040;-75
2022/10/20 08:14:54;;;;;;;33.08;16.98;;;;;;;12.89;100.00;101156.78;5224943;28;20071;-74
2022/10/20 08:17:26;;;;;;;34.95;15.52;;;;;;;13.00;100.00;101174.41;5224380;28;20029;-73
2022/10/20 08:19:56;;;;;;;28.95;15.98;;;;;;;13.13;100.00;101168.47;5224721;28;20087;-76
2022/10/20 08:22:26;;;;;;;29.15;15.10;;;;;;;13.30;100.00;101170.09;5224673;28;20107;-76
2022/10/20 08:24:57;;;;;;;30.70;14.52;;;;;;;13.52;100.00;101179.25;5224424;28;20206;-75
2022/10/20 08:27:27;;;;;;;29.67;14.07;;;;;;;13.74;100.00;101183.00;5223927;28;20027;-75
2022/10/20 08:29:58;;;;;;;24.92;13.20;;;;;;;13.92;100.00;101174.63;5223616;28;20032;-74
2022/10/20 08:32:28;;;;;;;20.63;11.15;;;;;;;14.09;100.00;101173.47;5223836;28;20090;-74
2022/10/20 08:34:58;;;;;;;24.88;11.73;;;;;;;14.21;100.00;101163.94;5224629;28;20048;-75
2022/10/20 08:37:30;;;;;;;17.73;10.75;;;;;;;14.26;100.00;101155.28;5223388;28;20106;-75
2022/10/20 08:40:05;;;;;;;24.10;10.55;;;;;;;14.33;100.00;101158.09;5224684;28;20033;-75
2022/10/20 08:42:41;;;;;;;22.27;11.50;;;;;;;14.31;100.00;101154.72;5224541;28;20517;-74
2022/10/20 08:45:18;;;;;;;20.25;11.05;;;;;;;14.26;100.00;101160.69;5224011;28;20548;-75
2022/10/20 08:47:54;;;;;;;21.33;10.63;;;;;;;14.20;100.00;101169.47;5223334;28;20021;-74
2022/10/20 08:50:29;;;;;;;19.10;11.32;;;;;;;14.17;100.00;101168.00;5223030;28;20058;-74
2022/10/20 08:53:00;;;;;;;21.77;11.27;;;;;;;14.13;100.00;101155.06;5224114;28;20021;-74
2022/10/20 08:55:32;;;;;;;24.63;11.60;;;;;;;14.09;100.00;101159.97;5224373;28;20027;-75
2022/10/20 08:58:06;;;;;;;22.23;11.43;;;;;;;14.07;100.00;101156.63;5222927;28;20043;-75
2022/10/20 09:00:38;;;;;;;18.42;11.13;;;;;;;14.08;100.00;101158.28;5224044;28;20036;-75
2022/10/20 09:03:14;;;;;;;18.73;11.05;;;;;;;14.07;100.00;101155.78;5223842;28;20106;-75
2022/10/20 09:05:52;;;;;;;20.55;12.02;;;;;;;14.09;100.00;101148.34;5223488;28;20028;-75
2022/10/20 09:08:28;;;;;;;27.17;11.43;;;;;;;14.07;100.00;101142.31;5209635;28;20032;-75
2022/10/20 09:10:58;;;;;;;23.42;11.30;;;;;;;14.05;100.00;101147.84;5223761;28;20024;-75
2022/10/20 09:13:31;;;;;;;23.23;13.55;;;;;;;14.05;100.00;101147.84;5223774;28;20514;-74
2022/10/20 09:16:27;;;;;;;24.98;12.27;;;;;;;14.04;100.00;101143.50;5223889;28;20029;-75
2022/10/20 09:19:00;;;;;;;23.77;13.10;;;;;;;14.03;100.00;101136.41;5222695;28;20025;-75
2022/10/20 09:21:33;;;;;;;22.20;12.68;;;;;;;14.02;100.00;101148.25;5223833;28;20017;-75
2022/10/20 09:24:05;;;;;;;29.20;13.23;;;;;;;13.99;100.00;101149.44;5223365;28;20037;-74
2022/10/20 09:26:43;;;;;;;26.25;14.00;;;;;;;13.97;100.00;101139.84;5223864;28;20709;-75
2022/10/20 09:29:16;;;;;;;25.10;13.18;;;;;;;13.96;100.00;101146.28;5222904;28;20028;-75
2022/10/20 09:31:48;;;;;;;35.92;14.77;;;;;;;13.96;100.00;101136.31;5223199;28;20088;-76
2022/10/20 09:34:26;;;;;;;33.42;14.60;;;;;;;13.98;100.00;101144.22;5223396;28;20509;-75
2022/10/20 09:37:05;;;;;;;30.00;15.70;;;;;;;13.97;100.00;101139.84;5222782;28;20021;-75
2022/10/20 09:39:53;;;;;;;36.60;16.30;;;;;;;13.97;100.00;101132.59;5223524;28;20024;-76
2022/10/20 09:42:39;;;;;;;33.45;15.43;;;;;;;13.97;100.00;101121.81;5223240;28;20055;-75
2022/10/20 09:45:28;;;;;;;32.63;16.38;;;;;;;13.97;100.00;101120.97;5223277;28;20056;-76
2022/10/20 09:48:06;;;;;;;35.55;16.70;;;;;;;13.96;100.00;101132.78;5222576;28;20023;-75
2022/10/20 09:50:39;;;;;;;36.42;16.85;;;;;;;13.98;100.00;101125.34;5223320;28;20078;-76
2022/10/20 09:53:18;;;;;;;33.65;16.65;;;;;;;13.99;100.00;101110.81;5223433;28;20024;-76
2022/10/20 09:55:50;;;;;;;37.15;17.13;;;;;;;13.99;100.00;101110.81;5223532;28;20049;-75
2022/10/20 09:58:26;;;;;;;35.70;17.10;;;;;;;14.03;100.00;101100.53;5222392;28;20025;-75
2022/10/20 10:01:13;;;;;;;32.97;17.50;;;;;;;14.04;100.00;101086.84;5223257;28;20025;-75
2022/10/20 10:03:48;;;;;;;40.45;17.85;;;;;;;14.05;100.00;101085.81;5223529;28;20025;-76
2022/10/20 10:06:27;;;;;;;38.28;18.33;;;;;;;14.06;100.00;101102.88;5223490;28;20514;-76
2022/10/20 10:09:00;;;;;;;38.95;19.15;;;;;;;14.06;100.00;101094.78;5222338;28;20118;-76
2022/10/20 10:11:35;;;;;;;39.50;17.33;;;;;;;14.07;100.00;101091.03;5223126;28;20666;-75
2022/10/20 10:14:21;;;;;;;38.42;17.77;;;;;;;14.11;100.00;101092.34;5221812;28;20064;-75
2022/10/20 10:16:51;;;;;;;35.08;18.15;;;;;;;14.15;100.00;101089.09;5222916;28;20116;-75
2022/10/20 10:19:26;;;;;;;38.53;18.15;;;;;;;14.22;100.00;101095.44;5226530;28;20108;-75
2022/10/20 10:21:59;;;;;;;36.60;17.02;;;;;;;14.32;100.00;101088.94;5227239;28;20025;-76
2022/10/20 10:24:36;;;;;;;39.78;18.25;;;;;;;14.45;100.00;101081.84;5225714;28;20017;-76
2022/10/20 10:27:26;;;;;;;38.13;16.65;;;;;;;14.64;100.00;101072.38;5226048;28;20039;-77
2022/10/20 10:30:27;;;;;;;36.00;19.10;;;;;;;14.85;100.00;101054.56;5226755;28;20491;-76
2022/10/20 10:32:58;;;;;;;33.20;16.58;;;;;;;14.99;100.00;101056.41;5224274;28;20036;-76
2022/10/20 10:35:40;;;;;;;34.72;15.85;;;;;;;15.07;100.00;101064.41;5226702;28;20511;-76
2022/10/20 10:38:12;;;;;;;33.22;17.23;;;;;;;15.14;100.00;101057.22;5225821;28;20089;-76
2022/10/20 10:41:04;;;;;;;31.23;15.13;;;;;;;15.38;100.00;101057.88;5225676;28;20036;-75
2022/10/20 10:43:54;;;;;;;29.67;14.43;;;;;;;15.57;100.00;101059.94;5226548;28;20052;-76
2022/10/20 10:46:36;;;;;;;28.17;13.82;;;;;;;15.73;100.00;101058.88;5225197;28;20093;-75
2022/10/20 10:49:21;;;;;;;30.48;13.35;;;;;;;15.87;100.00;101057.13;5226822;28;20032;-76
2022/10/20 10:51:55;;;;;;;25.00;13.30;;;;;;;15.93;100.00;101061.75;5226462;28;20029;-75
2022/10/20 10:54:36;;;;;;;25.83;12.75;;;;;;;15.88;100.00;101056.91;5226541;28;20102;-75
2022/10/20 10:57:22;;;;;;;27.13;12.18;;;;;;;15.86;100.00;101077.06;5225542;28;20035;-76
2022/10/20 10:59:54;;;;;;;27.73;12.13;;;;;;;15.76;100.00;101075.56;5224918;28;20379;-75
2022/10/20 11:02:52;;;;;;;25.38;11.70;;;;;;;15.82;100.00;101084.75;5226309;28;20367;-76
2022/10/20 11:05:49;;;;;;;26.60;11.65;;;;;;;15.93;100.00;101097.75;5226079;28;20403;-75
2022/10/20 11:08:52;;;;;;;22.02;12.07;;;;;;;16.02;100.00;101098.47;5224379;28;20126;-78
2022/10/20 11:11:23;;;;;;;24.25;12.15;;;;;;;15.97;100.00;101100.91;5185791;28;20041;-78
2022/10/20 11:14:18;;;;;;;26.38;12.55;;;;;;;16.01;100.00;101103.03;5217040;28;20032;-78
2022/10/20 11:16:56;;;;;;;23.00;12.63;;;;;;;16.11;100.00;101102.66;5225791;28;20470;-78
2022/10/20 11:19:52;;;;;;;31.00;12.27;;;;;;;16.25;100.00;101098.19;5225980;28;20039;-77
2022/10/20 11:22:34;;;;;;;24.88;13.15;;;;;;;16.44;100.00;101093.97;5224744;28;20074;-78
2022/10/20 11:25:31;;;;;;;29.75;12.98;;;;;;;16.80;100.00;101083.75;5225575;28;20037;-78
2022/10/20 11:28:05;;;;;;;21.58;10.85;;;;;;;16.98;100.00;101085.09;5211764;28;20016;-78
2022/10/20 11:30:35;;;;;;;20.17;10.38;;;;;;;16.90;100.00;101086.09;5225447;28;20063;-78
2022/10/20 11:33:17;;;;;;;15.75;9.73;;;;;;;16.98;100.00;101082.41;5225647;28;20505;-78
2022/10/20 11:35:52;;;;;;;23.48;10.30;;;;;;;17.00;100.00;101074.88;5225623;28;20025;-78